createdAt,value
2023-07-03T00:02:24.801Z,41.37
2023-07-03T00:05:27.285Z,41.44
2023-07-03T00:08:29.454Z,41.93
2023-07-03T00:11:31.610Z,41.70
2023-07-03T00:14:33.898Z,42.69
2023-07-03T00:17:38.630Z,42.67
2023-07-03T00:20:41.110Z,42.91
2023-07-03T00:23:43.319Z,43.04
2023-07-03T00:26:45.529Z,43.38
2023-07-03T00:29:47.913Z,42.82
2023-07-03T00:32:50.195Z,42.72
2023-07-03T00:35:52.677Z,43.13
2023-07-03T00:38:58.458Z,42.80
2023-07-03T00:42:01.414Z,42.99
2023-07-03T00:45:08.710Z,42.87
2023-07-03T00:48:11.009Z,43.30
2023-07-03T00:51:15.271Z,42.77
2023-07-03T00:54:17.557Z,42.61
2023-07-03T00:57:20.008Z,42.43
2023-07-03T01:00:23.246Z,42.89
2023-07-03T01:03:33.986Z,42.87
2023-07-03T01:06:44.358Z,42.25
2023-07-03T01:09:54.284Z,42.63
2023-07-03T01:13:01.814Z,43.15
2023-07-03T01:16:05.915Z,42.71
2023-07-03T01:19:12.294Z,42.35
2023-07-03T01:22:21.082Z,42.65
2023-07-03T01:25:26.666Z,42.49
2023-07-03T01:28:29.296Z,42.14
2023-07-03T01:31:31.506Z,41.87
2023-07-03T01:34:35.019Z,41.36
2023-07-03T01:37:40.989Z,41.05
2023-07-03T01:40:43.224Z,41.61
2023-07-03T01:43:46.323Z,40.83
2023-07-03T01:46:48.589Z,41.70
2023-07-03T01:49:50.933Z,41.70
2023-07-03T01:53:02.060Z,41.52
2023-07-03T01:59:30.922Z,42.03
2023-07-03T02:02:33.749Z,42.55
2023-07-03T02:05:39.580Z,42.59
2023-07-03T02:08:42.035Z,42.73
2023-07-03T02:11:46.131Z,42.78
2023-07-03T02:14:49.347Z,41.89
2023-07-03T02:17:55.633Z,41.57
2023-07-03T02:21:01.671Z,40.88
2023-07-03T02:24:07.962Z,40.89
2023-07-03T02:27:10.260Z,41.22
2023-07-03T02:30:14.204Z,40.17
2023-07-03T02:33:17.167Z,40.64
2023-07-03T02:36:19.506Z,40.46
2023-07-03T02:39:21.789Z,40.01
2023-07-03T02:42:24.056Z,40.62
2023-07-03T02:45:26.891Z,40.58
2023-07-03T02:48:29.751Z,40.38
2023-07-03T02:51:32.095Z,40.99
2023-07-03T02:54:36.874Z,42.13
2023-07-03T02:57:40.472Z,42.49
2023-07-03T03:00:43.842Z,42.80
2023-07-03T03:03:46.383Z,42.65
2023-07-03T03:06:49.143Z,43.75
2023-07-03T03:09:51.583Z,43.47
2023-07-03T03:12:54.579Z,44.08
2023-07-03T03:15:57.088Z,43.54
2023-07-03T03:18:59.579Z,43.69
2023-07-03T03:22:01.884Z,44.05
2023-07-03T03:25:04.863Z,44.80
2023-07-03T03:28:07.361Z,44.63
2023-07-03T03:31:09.582Z,44.42
2023-07-03T03:34:16.699Z,44.76
2023-07-03T03:37:19.168Z,44.61
2023-07-03T03:40:21.797Z,44.85
2023-07-03T03:43:24.193Z,45.92
2023-07-03T03:46:26.643Z,45.52
2023-07-03T03:49:29.238Z,46.15
2023-07-03T03:52:32.372Z,45.97
2023-07-03T03:55:34.642Z,46.46
2023-07-03T03:58:37.135Z,46.37
2023-07-03T04:01:39.683Z,47.55
2023-07-03T04:04:41.919Z,47.89
2023-07-03T04:07:45.089Z,48.25
2023-07-03T04:10:47.475Z,47.85
2023-07-03T04:13:49.766Z,46.87
2023-07-03T04:16:52.358Z,46.74
2023-07-03T04:19:54.627Z,46.98
2023-07-03T04:22:56.826Z,46.26
2023-07-03T04:26:00.195Z,46.23
2023-07-03T04:29:02.533Z,45.76
2023-07-03T04:32:05.279Z,46.55
2023-07-03T04:35:08.098Z,46.79
2023-07-03T04:38:10.500Z,47.20
2023-07-03T04:41:13.578Z,46.81
2023-07-03T04:44:15.850Z,46.33
2023-07-03T04:47:18.396Z,45.87
2023-07-03T04:50:26.702Z,45.95
2023-07-03T04:53:28.868Z,45.55
2023-07-03T04:56:33.803Z,45.63
2023-07-03T04:59:37.226Z,44.68
2023-07-03T05:02:39.506Z,44.39
2023-07-03T05:05:41.854Z,43.78
2023-07-03T05:08:44.106Z,43.79
2023-07-03T05:11:49.820Z,42.55
2023-07-03T05:14:52.232Z,42.69
2023-07-03T05:17:57.715Z,41.51
2023-07-03T05:21:00.158Z,42.01
2023-07-03T05:24:04.162Z,38.81
2023-07-03T05:27:06.649Z,38.52
2023-07-03T05:30:09.371Z,37.76
2023-07-03T05:33:12.154Z,36.70
2023-07-03T05:36:14.419Z,37.01
2023-07-03T05:39:16.812Z,36.57
2023-07-03T05:42:19.521Z,35.82
2023-07-03T05:45:21.673Z,35.96
2023-07-03T05:48:24.475Z,35.64
2023-07-03T05:51:26.759Z,34.84
2023-07-03T05:54:29.108Z,33.82
2023-07-03T05:57:31.411Z,32.72
2023-07-03T06:00:34.252Z,32.34
2023-07-03T06:03:36.746Z,32.59
2023-07-03T06:06:39.037Z,32.88
2023-07-03T06:09:42.295Z,32.01
2023-07-03T06:12:44.842Z,31.53
2023-07-03T06:15:47.141Z,31.07
2023-07-03T06:18:49.423Z,30.56
2023-07-03T06:21:51.756Z,30.07
2023-07-03T06:24:53.884Z,29.99
2023-07-03T06:27:56.013Z,29.87
2023-07-03T06:30:58.309Z,30.40
2023-07-03T06:34:00.499Z,29.83
2023-07-03T06:37:06.318Z,29.54
2023-07-03T06:40:12.082Z,29.44
2023-07-03T06:43:14.434Z,28.50
2023-07-03T06:46:16.869Z,28.14
2023-07-03T06:49:19.243Z,27.69
2023-07-03T06:52:21.543Z,26.58
2023-07-03T06:55:23.677Z,27.06
2023-07-03T06:58:26.903Z,28.47
2023-07-03T07:01:30.076Z,27.09
2023-07-03T07:04:32.981Z,24.71
2023-07-03T07:07:35.354Z,24.83
2023-07-03T07:10:41.117Z,21.11
2023-07-03T07:13:46.394Z,19.74
2023-07-03T07:16:48.759Z,17.14
2023-07-03T07:19:51.093Z,19.68
2023-07-03T07:22:53.321Z,15.97
2023-07-03T07:25:58.383Z,15.94
2023-07-03T07:29:04.599Z,16.84
2023-07-03T07:32:07.596Z,14.62
2023-07-03T07:35:10.031Z,15.56
2023-07-03T07:38:12.826Z,15.38
2023-07-03T07:41:15.192Z,15.10
2023-07-03T07:44:17.436Z,15.79
2023-07-03T07:47:19.735Z,16.25
2023-07-03T07:50:22.667Z,15.45
2023-07-03T07:53:24.916Z,16.95
2023-07-03T07:56:29.769Z,15.43
2023-07-03T07:59:37.564Z,15.26
2023-07-03T08:02:40.017Z,15.69
2023-07-03T08:05:42.307Z,16.72
2023-07-03T08:08:44.554Z,15.34
2023-07-03T08:11:46.835Z,16.40
2023-07-03T08:14:49.342Z,16.84
2023-07-03T08:17:51.683Z,17.90
2023-07-03T08:20:54.592Z,18.76
2023-07-03T08:23:56.934Z,18.87
2023-07-03T08:26:59.203Z,19.59
2023-07-03T08:30:01.799Z,19.64
2023-07-03T08:33:04.147Z,19.90
2023-07-03T08:39:12.409Z,20.65
2023-07-03T08:42:33.235Z,20.91
2023-07-03T08:45:39.341Z,21.87
2023-07-03T08:48:43.299Z,21.82
2023-07-03T08:51:45.516Z,20.92
2023-07-03T08:54:49.302Z,20.61
2023-07-03T08:57:51.729Z,20.62
2023-07-03T09:01:04.115Z,21.00
2023-07-03T09:04:47.143Z,21.08
2023-07-03T09:08:02.364Z,22.24
2023-07-03T09:11:05.044Z,21.70
2023-07-03T09:14:12.744Z,22.58
2023-07-03T09:17:15.051Z,22.56
2023-07-03T09:20:17.408Z,20.98
2023-07-03T09:23:22.822Z,22.03
2023-07-03T09:26:31.949Z,22.88
2023-07-03T09:29:36.239Z,22.19
2023-07-03T09:32:38.630Z,22.30
2023-07-03T09:35:42.040Z,21.44
2023-07-03T09:38:44.368Z,22.02
2023-07-03T09:41:47.891Z,20.90
2023-07-03T09:44:51.043Z,21.44
2023-07-03T09:47:59.792Z,21.13
2023-07-03T09:51:08.067Z,22.54
2023-07-03T09:54:23.042Z,24.06
2023-07-03T09:57:28.511Z,23.95
2023-07-03T10:00:31.655Z,24.01
2023-07-03T10:03:36.226Z,23.30
2023-07-03T10:06:40.508Z,23.42
2023-07-03T10:12:57.310Z,24.01
2023-07-03T10:16:00.337Z,24.11
2023-07-03T10:19:03.020Z,22.58
2023-07-03T10:22:06.715Z,22.18
2023-07-03T10:25:11.542Z,22.84
2023-07-03T10:28:20.055Z,22.46
2023-07-03T10:31:35.776Z,22.71
2023-07-03T10:34:43.871Z,23.66
2023-07-03T10:37:53.527Z,23.58
2023-07-03T10:41:00.739Z,24.12
2023-07-03T10:44:14.350Z,23.64
2023-07-03T10:47:21.252Z,24.12
2023-07-03T10:50:30.005Z,24.46
2023-07-03T10:53:45.710Z,24.12
2023-07-03T10:56:53.592Z,25.31
2023-07-03T10:59:59.655Z,25.38
2023-07-03T11:03:22.433Z,25.18
2023-07-03T11:06:32.022Z,25.48
2023-07-03T11:09:58.885Z,25.00
2023-07-03T11:13:08.912Z,24.95
2023-07-03T11:16:15.444Z,24.91
2023-07-03T11:28:55.355Z,25.25
2023-07-03T11:31:58.095Z,24.62
2023-07-03T11:44:29.854Z,26.81
2023-07-03T11:47:34.539Z,26.42
2023-07-03T11:50:36.887Z,26.62
2023-07-03T11:53:41.824Z,27.08
2023-07-03T11:56:45.464Z,26.67
2023-07-03T11:59:47.775Z,26.31
2023-07-03T12:02:50.010Z,25.66
2023-07-03T12:05:53.423Z,26.77
2023-07-03T12:09:23.293Z,26.66
2023-07-03T12:12:27.913Z,26.58
2023-07-03T12:15:30.160Z,26.14
2023-07-03T12:18:34.000Z,26.68
2023-07-03T12:21:39.697Z,26.33
2023-07-03T12:24:41.979Z,26.63
2023-07-03T12:27:44.102Z,26.99
2023-07-03T12:30:46.522Z,26.71
2023-07-03T12:33:58.605Z,26.75
2023-07-03T12:37:04.242Z,26.73
2023-07-03T12:40:09.420Z,26.15
2023-07-03T12:43:18.480Z,26.61
2023-07-03T12:46:36.221Z,26.98
2023-07-03T12:50:00.202Z,27.09
2023-07-03T12:53:04.951Z,27.38
2023-07-03T12:56:09.559Z,28.31
2023-07-03T12:59:16.881Z,28.10
2023-07-03T13:02:39.470Z,27.95
2023-07-03T13:05:41.893Z,27.23
2023-07-03T13:08:50.672Z,27.32
2023-07-03T13:11:53.056Z,27.65
2023-07-03T13:15:08.134Z,27.33
2023-07-03T13:18:13.485Z,27.30
2023-07-03T13:21:20.924Z,27.51
2023-07-03T13:24:24.881Z,28.45
2023-07-03T13:27:27.677Z,28.30
2023-07-03T13:30:36.734Z,28.39
2023-07-03T13:33:43.712Z,28.58
2023-07-03T13:36:51.181Z,28.44
2023-07-03T13:40:01.125Z,28.34
2023-07-03T13:43:05.535Z,28.18
2023-07-03T13:46:09.290Z,27.88
2023-07-03T13:49:15.540Z,28.63
2023-07-03T13:52:17.804Z,29.60
2023-07-03T13:55:19.898Z,30.03
2023-07-03T13:58:22.314Z,30.51
2023-07-03T14:01:26.703Z,30.33
2023-07-03T14:04:30.303Z,30.89
2023-07-03T14:07:32.657Z,30.61
2023-07-03T14:10:35.195Z,30.86
2023-07-03T14:13:38.105Z,31.29
2023-07-03T14:16:40.432Z,31.68
2023-07-03T14:19:42.529Z,32.00
2023-07-03T14:22:44.980Z,31.37
2023-07-03T14:25:48.544Z,30.90
2023-07-03T14:28:51.209Z,31.11
2023-07-03T14:31:53.413Z,30.97
2023-07-03T14:34:55.558Z,30.52
2023-07-03T14:37:57.709Z,30.39
2023-07-03T14:41:01.549Z,30.65
2023-07-03T14:44:04.224Z,31.14
2023-07-03T14:47:06.704Z,31.06
2023-07-03T14:50:12.849Z,31.04
2023-07-03T14:53:15.331Z,31.14
2023-07-03T14:56:17.566Z,30.69
2023-07-03T14:59:19.697Z,30.37
2023-07-03T15:02:21.905Z,31.55
2023-07-03T15:05:24.335Z,32.25
2023-07-03T15:08:27.243Z,32.18
2023-07-03T15:11:29.421Z,32.75
2023-07-03T15:14:31.703Z,32.25
2023-07-03T15:17:34.100Z,32.40
2023-07-03T15:20:39.603Z,32.20
2023-07-03T15:23:42.107Z,31.27
2023-07-03T15:26:44.238Z,32.07
2023-07-03T15:29:47.528Z,31.64
2023-07-03T15:32:53.440Z,31.02
2023-07-03T15:35:57.309Z,31.43
2023-07-03T15:38:59.741Z,31.72
2023-07-03T15:42:01.980Z,32.26
2023-07-03T15:45:04.593Z,32.67
2023-07-03T15:48:06.902Z,32.47
2023-07-03T15:51:09.605Z,33.21
2023-07-03T15:54:11.802Z,33.45
2023-07-03T15:57:18.105Z,33.46
2023-07-03T16:00:24.194Z,33.40
2023-07-03T16:03:26.599Z,33.53
2023-07-03T16:06:33.685Z,33.91
2023-07-03T16:09:35.936Z,34.55
2023-07-03T16:12:39.120Z,34.69
2023-07-03T16:15:41.458Z,34.81
2023-07-03T16:18:48.464Z,34.55
2023-07-03T16:21:50.831Z,34.48
2023-07-03T16:24:52.940Z,34.46
2023-07-03T16:27:55.115Z,35.21
2023-07-03T16:31:02.084Z,34.86
2023-07-03T16:34:04.439Z,35.65
2023-07-03T16:37:06.798Z,35.63
2023-07-03T16:40:09.954Z,35.77
2023-07-03T16:43:12.192Z,35.37
2023-07-03T16:46:18.969Z,35.77
2023-07-03T16:49:21.309Z,35.30
2023-07-03T16:52:23.448Z,35.44
2023-07-03T16:55:25.630Z,35.14
2023-07-03T16:58:27.829Z,35.24
2023-07-03T17:01:30.949Z,35.66
2023-07-03T17:04:34.320Z,35.64
2023-07-03T17:07:36.603Z,35.67
2023-07-03T17:10:38.799Z,35.29
2023-07-03T17:13:41.523Z,35.28
2023-07-03T17:16:43.840Z,36.22
2023-07-03T17:19:46.154Z,36.85
2023-07-03T17:22:48.373Z,37.22
2023-07-03T17:25:50.844Z,37.73
2023-07-03T17:28:53.176Z,37.97
2023-07-03T17:31:55.485Z,38.56
2023-07-03T17:34:57.712Z,38.59
2023-07-03T17:38:00.165Z,39.45
2023-07-03T17:41:06.776Z,39.46
2023-07-03T17:44:09.105Z,39.79
2023-07-03T17:47:11.352Z,40.31
2023-07-03T17:50:13.597Z,40.42
2023-07-03T17:53:16.733Z,40.84
2023-07-03T17:56:21.163Z,41.55
2023-07-03T17:59:24.017Z,41.56
2023-07-03T18:02:26.382Z,41.22
2023-07-03T18:05:30.187Z,40.86
2023-07-03T18:08:32.458Z,41.11
2023-07-03T18:11:34.819Z,41.44
2023-07-03T18:14:38.923Z,41.89
2023-07-03T18:17:41.227Z,41.85
2023-07-03T18:20:45.326Z,41.64
2023-07-03T18:23:49.615Z,41.26
2023-07-03T18:26:51.908Z,41.90
2023-07-03T18:29:54.192Z,42.90
2023-07-03T18:32:56.827Z,42.99
2023-07-03T18:35:59.314Z,42.64
2023-07-03T18:39:01.719Z,42.34
2023-07-03T18:42:04.285Z,42.82
2023-07-03T18:45:06.931Z,42.40
2023-07-03T18:48:09.195Z,42.29
2023-07-03T18:51:24.236Z,42.04
2023-07-03T18:54:26.561Z,41.94
2023-07-03T18:57:28.865Z,41.89
2023-07-03T19:00:31.003Z,41.78
2023-07-03T19:03:33.956Z,41.26
2023-07-03T19:06:36.318Z,41.02
2023-07-03T19:09:38.428Z,40.86
2023-07-03T19:12:41.646Z,41.30
2023-07-03T19:15:44.750Z,43.07
2023-07-03T19:18:48.300Z,44.00
2023-07-03T19:21:50.605Z,44.06
2023-07-03T19:24:56.542Z,44.22
2023-07-03T19:27:59.069Z,44.97
2023-07-03T19:31:02.268Z,45.22
2023-07-03T19:34:05.144Z,44.53
2023-07-03T19:37:07.793Z,43.90
2023-07-03T19:40:10.088Z,45.08
2023-07-03T19:43:12.238Z,43.67
2023-07-03T19:46:14.457Z,43.33
2023-07-03T19:49:16.624Z,43.06
2023-07-03T19:52:22.158Z,43.18
2023-07-03T19:55:24.820Z,43.17
2023-07-03T19:58:27.233Z,43.07
2023-07-03T20:01:31.510Z,43.08
2023-07-03T20:04:34.115Z,42.52
